Time;durP1;ratioP1;P1;durP2;ratioP2;P2;SDS_P1;SDS_P2;PMS_P1;PMS_P2;Temp;Humidity;BMP_temperature;BMP_pressure;BME280_temperature;BME280_humidity;BME280_pressure;Samples;Min_cycle;Max_cycle;Signal;HPM_P1;HPM_P2
2022/10/11 00:01:49;;;;;;;;;;;12.40;89.80;;;;;;5099451;28;19912;-55
2022/10/11 00:04:14;;;;;;;;;;;12.40;89.30;;;;;;5099344;28;20310;-56
2022/10/11 00:06:42;;;;;;;;;;;12.40;88.80;;;;;;5099016;28;19927;-56
2022/10/11 00:09:10;;;;;;;;;;;12.40;88.70;;;;;;5098973;28;19908;-56
2022/10/11 00:11:36;;;;;;;;;;;12.40;88.50;;;;;;5098684;28;19909;-55
2022/10/11 00:14:02;;;;;;;;;;;12.40;87.80;;;;;;5098933;28;19915;-55
2022/10/11 00:16:27;;;;;;;;;;;12.40;89.00;;;;;;5099020;28;20279;-55
2022/10/11 00:18:53;;;;;;;;;;;12.30;90.10;;;;;;5098722;28;19998;-56
2022/10/11 00:21:20;;;;;;;;;;;12.30;88.90;;;;;;5099002;28;19908;-55
2022/10/11 00:23:46;;;;;;;;;;;12.30;88.70;;;;;;5098835;28;19919;-55
2022/10/11 00:26:12;;;;;;;;;;;12.30;89.60;;;;;;5098512;28;20377;-56
2022/10/11 00:28:38;;;;;;;;;;;12.20;90.10;;;;;;5098594;28;20429;-56
2022/10/11 00:31:11;;;;;;;;;;;12.20;88.90;;;;;;5098298;28;20015;-55
2022/10/11 00:33:37;;;;;;;;;;;12.20;88.90;;;;;;5098398;28;19915;-56
2022/10/11 00:36:03;;;;;;;;;;;12.10;88.20;;;;;;5080284;28;19912;-56
2022/10/11 00:38:28;;;;;;;;;;;12.10;89.00;;;;;;5098737;28;19999;-55
2022/10/11 00:40:54;;;;;;;;;;;12.10;88.10;;;;;;5098437;28;20282;-56
2022/10/11 00:43:21;;;;;;;;;;;12.00;88.20;;;;;;5098322;28;19944;-55
2022/10/11 00:45:50;;;;;;;;;;;12.10;90.30;;;;;;5098751;28;19909;-55
2022/10/11 00:48:20;;;;;;;;;;;12.00;88.50;;;;;;5098435;28;19930;-55
2022/10/11 00:50:46;;;;;;;;;;;12.00;89.10;;;;;;5098215;28;19908;-55
2022/10/11 00:53:12;;;;;;;;;;;12.00;88.30;;;;;;5098378;28;19912;-55
2022/10/11 00:55:43;;;;;;;;;;;11.90;89.50;;;;;;5097927;28;19915;-53
2022/10/11 00:58:09;;;;;;;;;;;12.00;88.90;;;;;;5098490;28;19915;-54
2022/10/11 01:00:35;;;;;;;;;;;11.90;90.10;;;;;;5098402;28;19958;-51
2022/10/11 01:03:01;;;;;;;;;;;11.90;88.80;;;;;;5098757;28;19908;-53
2022/10/11 01:05:27;;;;;;;;;;;11.90;89.90;;;;;;5098040;28;19909;-55
2022/10/11 01:07:53;;;;;;;;;;;11.90;89.90;;;;;;5098049;28;19919;-52
2022/10/11 01:10:18;;;;;;;;;;;11.90;90.30;;;;;;5098359;28;20291;-54
2022/10/11 01:13:10;;;;;;;;;;;11.90;89.60;;;;;;5098224;28;19946;-54
2022/10/11 01:15:43;;;;;;;;;;;11.90;90.10;;;;;;5059044;28;20280;-55
2022/10/11 01:18:13;;;;;;;;;;;11.90;90.00;;;;;;5098369;28;19909;-52
2022/10/11 01:20:47;;;;;;;;;;;11.90;90.40;;;;;;5097938;28;19999;-52
2022/10/11 01:23:32;;;;;;;;;;;11.90;90.30;;;;;;5097821;28;20015;-53
2022/10/11 01:26:03;;;;;;;;;;;11.90;89.60;;;;;;5098272;28;19916;-53
2022/10/11 01:28:35;;;;;;;;;;;11.90;90.10;;;;;;5098147;28;19908;-51
2022/10/11 01:31:04;;;;;;;;;;;11.80;90.10;;;;;;5097891;28;19915;-54
2022/10/11 01:33:41;;;;;;;;;;;11.80;89.70;;;;;;5079561;28;19989;-54
2022/10/11 01:36:13;;;;;;;;;;;11.80;89.90;;;;;;5098218;28;20374;-54
2022/10/11 01:38:39;;;;;;;;;;;11.80;89.90;;;;;;5097899;28;19914;-50
2022/10/11 01:41:20;;;;;;;;;;;11.80;89.70;;;;;;5098109;28;19939;-53
2022/10/11 01:43:47;;;;;;;;;;;11.80;90.00;;;;;;5098107;28;19912;-54
2022/10/11 01:46:13;;;;;;;;;;;11.70;90.00;;;;;;5097897;28;19987;-52
2022/10/11 01:48:55;;;;;;;;;;;11.70;88.90;;;;;;5097962;28;19908;-51
2022/10/11 01:51:23;;;;;;;;;;;11.60;89.40;;;;;;5097879;28;19908;-53
2022/10/11 01:53:58;;;;;;;;;;;11.60;89.00;;;;;;5097855;28;20436;-51
2022/10/11 01:56:32;;;;;;;;;;;11.60;89.50;;;;;;5097962;28;19990;-53
2022/10/11 01:59:04;;;;;;;;;;;11.60;90.00;;;;;;5097896;28;20290;-54
2022/10/11 02:01:36;;;;;;;;;;;11.60;90.00;;;;;;5097738;28;19908;-53
2022/10/11 02:04:07;;;;;;;;;;;11.60;89.10;;;;;;5097580;28;19981;-53
2022/10/11 02:06:33;;;;;;;;;;;11.50;88.90;;;;;;5097463;28;19924;-52
2022/10/11 02:09:03;;;;;;;;;;;11.50;89.90;;;;;;5100591;28;20389;-52
2022/10/11 02:11:30;;;;;;;;;;;11.50;89.90;;;;;;5101329;28;20368;-52
2022/10/11 02:13:58;;;;;;;;;;;11.50;89.50;;;;;;5101636;28;19909;-52
2022/10/11 02:16:30;;;;;;;;;;;11.50;90.00;;;;;;5101226;28;19908;-55
2022/10/11 02:18:57;;;;;;;;;;;11.50;89.50;;;;;;5100852;28;19908;-53
2022/10/11 02:21:23;;;;;;;;;;;11.50;90.00;;;;;;5101386;28;19962;-53
2022/10/11 02:23:52;;;;;;;;;;;11.50;89.90;;;;;;5100991;28;19912;-53
2022/10/11 02:26:18;;;;;;;;;;;11.50;90.10;;;;;;5101451;28;19908;-55
2022/10/11 02:28:45;;;;;;;;;;;11.40;89.40;;;;;;5101008;28;19908;-51
2022/10/11 02:31:11;;;;;;;;;;;11.40;90.00;;;;;;5101192;28;19908;-52
2022/10/11 02:33:45;;;;;;;;;;;11.50;90.10;;;;;;5100813;28;19957;-55
2022/10/11 02:36:15;;;;;;;;;;;11.40;89.80;;;;;;5101319;28;19971;-53
2022/10/11 02:38:46;;;;;;;;;;;11.40;89.60;;;;;;5100758;28;19915;-50
2022/10/11 02:41:20;;;;;;;;;;;11.40;89.90;;;;;;5100941;28;19908;-53
2022/10/11 02:43:50;;;;;;;;;;;11.40;89.80;;;;;;5100835;28;20359;-55
2022/10/11 02:46:16;;;;;;;;;;;11.40;88.90;;;;;;5100694;28;19908;-54
2022/10/11 02:48:42;;;;;;;;;;;11.40;89.90;;;;;;5100514;28;19943;-53
2022/10/11 02:51:12;;;;;;;;;;;11.30;89.90;;;;;;5100340;28;19908;-54
2022/10/11 02:53:37;;;;;;;;;;;11.30;89.60;;;;;;5100474;28;20008;-55
2022/10/11 02:56:03;;;;;;;;;;;11.30;90.30;;;;;;5100690;28;19916;-51
2022/10/11 02:58:28;;;;;;;;;;;11.30;89.70;;;;;;5100397;28;20016;-55
2022/10/11 03:00:54;;;;;;;;;;;11.30;90.20;;;;;;5082045;28;19915;-53
2022/10/11 03:03:20;;;;;;;;;;;11.30;90.00;;;;;;5081984;28;19919;-52
2022/10/11 03:05:45;;;;;;;;;;;11.30;90.20;;;;;;5100211;28;19942;-54
2022/10/11 03:08:12;;;;;;;;;;;11.30;90.10;;;;;;5100416;28;19912;-53
2022/10/11 03:10:38;;;;;;;;;;;11.20;90.00;;;;;;5100324;28;19908;-52
2022/10/11 03:13:04;;;;;;;;;;;11.20;89.90;;;;;;5100109;28;19909;-54
2022/10/11 03:15:29;;;;;;;;;;;11.20;90.00;;;;;;5100318;28;19909;-55
2022/10/11 03:17:55;;;;;;;;;;;11.20;90.10;;;;;;5099991;28;19955;-51
2022/10/11 03:20:21;;;;;;;;;;;11.20;89.40;;;;;;5099591;28;19908;-55
2022/10/11 03:22:47;;;;;;;;;;;11.20;89.50;;;;;;5100318;28;19915;-53
2022/10/11 03:25:12;;;;;;;;;;;11.20;90.00;;;;;;5099981;28;19916;-54
2022/10/11 03:27:38;;;;;;;;;;;11.10;89.70;;;;;;5082136;28;19908;-55
2022/10/11 03:30:04;;;;;;;;;;;11.20;90.20;;;;;;5100063;28;19915;-51
2022/10/11 03:32:29;;;;;;;;;;;11.20;90.20;;;;;;5099868;28;19908;-53
2022/10/11 03:34:55;;;;;;;;;;;11.20;90.30;;;;;;5099853;28;19968;-53
2022/10/11 03:37:21;;;;;;;;;;;11.20;90.30;;;;;;5099798;28;20392;-49
2022/10/11 03:39:47;;;;;;;;;;;11.20;89.70;;;;;;5099654;28;19908;-54
2022/10/11 03:42:13;;;;;;;;;;;11.10;89.50;;;;;;5099471;28;20078;-53
2022/10/11 03:44:40;;;;;;;;;;;11.20;90.20;;;;;;5099677;28;19962;-54
2022/10/11 03:47:06;;;;;;;;;;;11.10;89.60;;;;;;5099199;28;19953;-52
2022/10/11 03:49:31;;;;;;;;;;;11.10;89.60;;;;;;5099376;28;19908;-52
2022/10/11 03:51:57;;;;;;;;;;;11.10;90.00;;;;;;5099697;28;19915;-52
2022/10/11 03:54:23;;;;;;;;;;;11.10;89.80;;;;;;5099786;28;19919;-53
2022/10/11 03:56:48;;;;;;;;;;;11.00;90.20;;;;;;5099082;28;19909;-52
2022/10/11 03:59:14;;;;;;;;;;;11.00;89.50;;;;;;5099258;28;19908;-52
2022/10/11 04:01:39;;;;;;;;;;;11.00;90.00;;;;;;5099350;28;19908;-55
2022/10/11 04:04:05;;;;;;;;;;;11.00;90.00;;;;;;5099180;28;20292;-51
2022/10/11 04:06:31;;;;;;;;;;;11.00;89.80;;;;;;5099116;28;19920;-50
2022/10/11 04:08:57;;;;;;;;;;;11.00;89.90;;;;;;5099025;28;19908;-53
2022/10/11 04:11:23;;;;;;;;;;;11.00;89.80;;;;;;5099234;28;19912;-55
2022/10/11 04:13:48;;;;;;;;;;;11.00;90.10;;;;;;5099110;28;20000;-55
2022/10/11 04:16:14;;;;;;;;;;;11.00;90.10;;;;;;5099278;28;19908;-55
2022/10/11 04:18:39;;;;;;;;;;;11.00;90.10;;;;;;5098799;28;19995;-53
2022/10/11 04:21:05;;;;;;;;;;;11.00;90.00;;;;;;5098858;28;19908;-54
2022/10/11 04:23:31;;;;;;;;;;;11.00;90.00;;;;;;5098820;28;19934;-52
2022/10/11 04:25:57;;;;;;;;;;;11.00;90.50;;;;;;5099067;28;19934;-54
2022/10/11 04:28:22;;;;;;;;;;;11.00;90.10;;;;;;5098843;28;19912;-54
2022/10/11 04:30:48;;;;;;;;;;;11.00;90.10;;;;;;5097885;28;19947;-53
2022/10/11 04:33:13;;;;;;;;;;;11.00;90.30;;;;;;5098669;28;20041;-54
2022/10/11 04:35:39;;;;;;;;;;;11.00;90.10;;;;;;5098732;28;19912;-52
2022/10/11 04:38:05;;;;;;;;;;;11.00;90.30;;;;;;5098719;28;19915;-51
2022/10/11 04:40:31;;;;;;;;;;;11.00;90.50;;;;;;5098563;28;19931;-52
2022/10/11 04:42:56;;;;;;;;;;;11.00;90.40;;;;;;5098788;28;19930;-52
2022/10/11 04:45:22;;;;;;;;;;;11.00;90.40;;;;;;5098762;28;19912;-55
2022/10/11 04:47:47;;;;;;;;;;;10.90;90.10;;;;;;5098551;28;20467;-52
2022/10/11 04:50:13;;;;;;;;;;;11.00;90.30;;;;;;5098331;28;19919;-51
2022/10/11 04:52:39;;;;;;;;;;;11.00;90.00;;;;;;5098760;28;20315;-50
2022/10/11 04:55:05;;;;;;;;;;;10.90;90.20;;;;;;5080101;28;20062;-50
2022/10/11 04:57:30;;;;;;;;;;;11.00;90.20;;;;;;5098575;28;19986;-52
2022/10/11 04:59:56;;;;;;;;;;;11.00;90.40;;;;;;5098100;28;19936;-51
2022/10/11 05:02:22;;;;;;;;;;;11.00;90.10;;;;;;5098432;28;19908;-54
2022/10/11 05:04:47;;;;;;;;;;;11.00;90.20;;;;;;5098072;28;19912;-53
2022/10/11 05:07:13;;;;;;;;;;;11.00;90.30;;;;;;5098338;28;19924;-51
2022/10/11 05:09:38;;;;;;;;;;;11.00;89.90;;;;;;5098376;28;20360;-54
2022/10/11 05:12:05;;;;;;;;;;;11.00;90.10;;;;;;5098147;28;19957;-54
2022/10/11 05:14:30;;;;;;;;;;;11.10;90.10;;;;;;5098057;28;20375;-52
2022/10/11 05:16:56;;;;;;;;;;;11.10;90.10;;;;;;5097957;28;19915;-55
2022/10/11 05:19:22;;;;;;;;;;;11.10;90.10;;;;;;5097960;28;20406;-51
2022/10/11 05:21:47;;;;;;;;;;;11.10;90.20;;;;;;5098088;28;19912;-51
2022/10/11 05:24:13;;;;;;;;;;;11.10;90.10;;;;;;5097814;28;20461;-54
2022/10/11 05:26:38;;;;;;;;;;;11.10;90.10;;;;;;5098362;28;20260;-54
2022/10/11 05:29:04;;;;;;;;;;;11.20;90.00;;;;;;5097825;28;19908;-53
2022/10/11 05:31:30;;;;;;;;;;;11.20;90.10;;;;;;5097912;28;19912;-54
2022/10/11 05:33:55;;;;;;;;;;;11.20;89.90;;;;;;5098181;28;19908;-55
2022/10/11 05:36:21;;;;;;;;;;;11.20;89.70;;;;;;5098282;28;19915;-53
2022/10/11 05:38:46;;;;;;;;;;;11.20;89.90;;;;;;5097753;28;19908;-55
2022/10/11 05:41:12;;;;;;;;;;;11.20;89.70;;;;;;5098129;28;19912;-55
2022/10/11 05:43:38;;;;;;;;;;;11.20;89.90;;;;;;5100690;28;19912;-52
2022/10/11 05:46:04;;;;;;;;;;;11.20;90.00;;;;;;5102132;28;19916;-54
2022/10/11 05:48:29;;;;;;;;;;;11.30;89.90;;;;;;5101705;28;19908;-53
2022/10/11 05:50:59;;;;;;;;;;;11.30;89.90;;;;;;5101710;28;19915;-54
2022/10/11 05:53:25;;;;;;;;;;;11.30;89.80;;;;;;5101867;28;19908;-54
2022/10/11 05:55:50;;;;;;;;;;;11.30;89.70;;;;;;5101900;28;20236;-52
2022/10/11 05:58:17;;;;;;;;;;;11.30;89.90;;;;;;5101996;28;19908;-52
2022/10/11 06:00:43;;;;;;;;;;;11.30;89.70;;;;;;5101486;28;19908;-55
2022/10/11 06:03:10;;;;;;;;;;;11.30;89.60;;;;;;5101388;28;20006;-54
2022/10/11 06:05:36;;;;;;;;;;;11.30;89.40;;;;;;5101468;28;19920;-55
2022/10/11 06:08:02;;;;;;;;;;;11.30;89.30;;;;;;5101811;28;19930;-54
2022/10/11 06:10:28;;;;;;;;;;;11.20;89.20;;;;;;5101657;28;19962;-53
2022/10/11 06:12:54;;;;;;;;;;;11.20;89.70;;;;;;5101301;28;19908;-54
2022/10/11 06:15:19;;;;;;;;;;;11.20;89.10;;;;;;5101667;28;19908;-55
2022/10/11 06:17:48;;;;;;;;;;;11.10;89.50;;;;;;5101048;28;19908;-54
2022/10/11 06:20:13;;;;;;;;;;;11.10;88.90;;;;;;5101117;28;19919;-55
2022/10/11 06:22:39;;;;;;;;;;;11.00;89.00;;;;;;5101386;28;19908;-51
2022/10/11 06:25:06;;;;;;;;;;;10.90;89.20;;;;;;5100908;28;19912;-53
2022/10/11 06:27:31;;;;;;;;;;;10.90;89.40;;;;;;5101135;28;19931;-54
2022/10/11 06:29:57;;;;;;;;;;;10.90;89.30;;;;;;5100587;28;19908;-54
2022/10/11 06:32:23;;;;;;;;;;;10.90;89.10;;;;;;5101131;28;20322;-54
2022/10/11 06:34:48;;;;;;;;;;;10.80;89.50;;;;;;5100998;28;20286;-53
2022/10/11 06:37:14;;;;;;;;;;;10.80;89.70;;;;;;5101160;28;20404;-53
2022/10/11 06:39:39;;;;;;;;;;;10.80;89.50;;;;;;5100726;28;19954;-52
2022/10/11 06:42:05;;;;;;;;;;;10.80;89.50;;;;;;5100480;28;20323;-52
2022/10/11 06:44:32;;;;;;;;;;;10.70;89.70;;;;;;5100851;28;19919;-54
2022/10/11 06:46:57;;;;;;;;;;;10.70;89.70;;;;;;5082255;28;20458;-52
2022/10/11 06:49:23;;;;;;;;;;;10.70;89.70;;;;;;5100159;28;19952;-55
2022/10/11 06:51:49;;;;;;;;;;;10.70;90.00;;;;;;5100411;28;19978;-49
2022/10/11 06:54:14;;;;;;;;;;;10.70;89.50;;;;;;5099270;28;19908;-52
2022/10/11 06:56:40;;;;;;;;;;;10.60;89.30;;;;;;5100157;28;19931;-54
2022/10/11 06:59:06;;;;;;;;;;;10.60;89.00;;;;;;5100204;28;19962;-53
2022/10/11 07:01:32;;;;;;;;;;;10.50;89.30;;;;;;5099235;28;20371;-54
2022/10/11 07:03:58;;;;;;;;;;;10.50;89.40;;;;;;5100231;28;19989;-54
2022/10/11 07:06:26;;;;;;;;;;;10.60;90.00;;;;;;5100073;28;19920;-53
2022/10/11 07:08:52;;;;;;;;;;;10.60;90.00;;;;;;5100110;28;19915;-55
2022/10/11 07:11:20;;;;;;;;;;;10.60;89.70;;;;;;5100131;28;19908;-53
2022/10/11 07:13:49;;;;;;;;;;;10.60;89.80;;;;;;5100190;28;20390;-54
2022/10/11 07:16:15;;;;;;;;;;;10.60;89.90;;;;;;5099780;28;19951;-54
2022/10/11 07:18:41;;;;;;;;;;;10.60;90.00;;;;;;5100008;28;19908;-55
2022/10/11 07:21:09;;;;;;;;;;;10.60;89.80;;;;;;5100385;28;19909;-55
2022/10/11 07:23:35;;;;;;;;;;;10.70;90.00;;;;;;5100054;28;19932;-53
2022/10/11 07:26:00;;;;;;;;;;;10.70;90.00;;;;;;5099909;28;19908;-52
2022/10/11 07:28:27;;;;;;;;;;;10.70;90.10;;;;;;5099671;28;19908;-52
2022/10/11 07:30:53;;;;;;;;;;;10.70;90.10;;;;;;5099558;28;19946;-54
2022/10/11 07:33:19;;;;;;;;;;;10.70;90.00;;;;;;5099753;28;19908;-53
2022/10/11 07:35:44;;;;;;;;;;;10.80;90.00;;;;;;5099811;28;20291;-54
2022/10/11 07:38:11;;;;;;;;;;;10.80;90.30;;;;;;5099607;28;20434;-55
2022/10/11 07:40:41;;;;;;;;;;;10.90;90.10;;;;;;5099582;28;19908;-55
2022/10/11 07:43:07;;;;;;;;;;;10.90;90.10;;;;;;5099554;28;19908;-52
2022/10/11 07:45:32;;;;;;;;;;;11.00;89.90;;;;;;5099913;28;19908;-54
2022/10/11 07:47:58;;;;;;;;;;;11.00;89.70;;;;;;5099157;28;20287;-53
2022/10/11 07:50:24;;;;;;;;;;;11.10;89.70;;;;;;5099367;28;19916;-52
2022/10/11 07:52:49;;;;;;;;;;;11.10;90.00;;;;;;5099439;28;19912;-54
2022/10/11 07:55:15;;;;;;;;;;;11.20;89.70;;;;;;5098986;28;20302;-51
2022/10/11 07:57:41;;;;;;;;;;;11.20;89.90;;;;;;5098988;28;20313;-51
2022/10/11 08:00:06;;;;;;;;;;;11.30;89.70;;;;;;5099176;28;19957;-50
2022/10/11 08:02:32;;;;;;;;;;;11.40;89.50;;;;;;5099063;28;19909;-50
2022/10/11 08:04:58;;;;;;;;;;;11.40;89.40;;;;;;5098915;28;19920;-54
2022/10/11 08:07:23;;;;;;;;;;;11.50;89.30;;;;;;5098609;28;19969;-54
2022/10/11 08:09:49;;;;;;;;;;;11.50;88.20;;;;;;5098932;28;20058;-50
2022/10/11 08:12:14;;;;;;;;;;;11.60;89.10;;;;;;5099007;28;19908;-51
2022/10/11 08:14:40;;;;;;;;;;;11.70;88.60;;;;;;5099332;28;20286;-54
2022/10/11 08:17:06;;;;;;;;;;;11.80;88.20;;;;;;5098999;28;19908;-51
2022/10/11 08:19:32;;;;;;;;;;;12.00;87.80;;;;;;5098886;28;20381;-52
2022/10/11 08:21:57;;;;;;;;;;;12.00;87.40;;;;;;5080509;28;19908;-54
2022/10/11 08:24:24;;;;;;;;;;;12.10;87.50;;;;;;5098439;28;20375;-51
2022/10/11 08:26:49;;;;;;;;;;;12.20;88.30;;;;;;5098512;28;19908;-55
2022/10/11 08:29:15;;;;;;;;;;;12.30;88.30;;;;;;5098641;28;19916;-53
2022/10/11 08:31:41;;;;;;;;;;;12.50;87.20;;;;;;5098886;28;20435;-55
2022/10/11 08:34:06;;;;;;;;;;;12.70;88.30;;;;;;5098450;28;19976;-53
2022/10/11 08:36:32;;;;;;;;;;;12.90;86.50;;;;;;5098553;28;19928;-55
2022/10/11 08:38:57;;;;;;;;;;;13.10;85.50;;;;;;5098716;28;20007;-53
2022/10/11 08:41:49;;;;;;;;;;;13.30;85.80;;;;;;5080245;28;19912;-53
2022/10/11 08:44:34;;;;;;;;;;;13.40;84.40;;;;;;5093301;28;19948;-53
2022/10/11 08:47:20;;;;;;;;;;;13.50;82.60;;;;;;5098347;28;19915;-54
2022/10/11 08:49:46;;;;;;;;;;;13.40;84.60;;;;;;5097502;28;20398;-51
2022/10/11 08:52:13;;;;;;;;;;;13.50;84.20;;;;;;5098632;28;19935;-52
2022/10/11 08:54:45;;;;;;;;;;;13.50;85.10;;;;;;5098007;28;19935;-55
2022/10/11 08:57:13;;;;;;;;;;;13.60;82.30;;;;;;5098113;28;19967;-55
2022/10/11 08:59:50;;;;;;;;;;;13.90;86.90;;;;;;5098436;28;19915;-51
2022/10/11 09:02:18;;;;;;;;;;;14.00;83.20;;;;;;5098038;28;19953;-56
2022/10/11 09:04:46;;;;;;;;;;;14.00;85.00;;;;;;5097997;28;20265;-51
2022/10/11 09:07:30;;;;;;;;;;;14.00;83.70;;;;;;5097624;28;19938;-54
2022/10/11 09:10:08;;;;;;;;;;;14.00;84.00;;;;;;5098251;28;19908;-52
2022/10/11 09:12:49;;;;;;;;;;;14.10;81.80;;;;;;5098235;28;20003;-55
2022/10/11 09:15:19;;;;;;;;;;;14.30;85.20;;;;;;5098259;28;19971;-54
2022/10/11 09:18:00;;;;;;;;;;;14.40;84.40;;;;;;5097850;28;19908;-55
2022/10/11 09:20:28;;;;;;;;;;;14.50;80.40;;;;;;5097793;28;19908;-53
2022/10/11 09:22:54;;;;;;;;;;;14.80;82.50;;;;;;5098026;28;19915;-53
2022/10/11 09:25:29;;;;;;;;;;;15.80;89.50;;;;;;5097709;28;20380;-56
2022/10/11 09:28:15;;;;;;;;;;;17.20;78.50;;;;;;5097984;28;19908;-55
2022/10/11 09:30:51;;;;;;;;;;;18.90;84.90;;;;;;5080273;28;19953;-56
2022/10/11 09:33:22;;;;;;;;;;;19.60;71.60;;;;;;5097936;28;19912;-52
2022/10/11 09:35:51;;;;;;;;;;;20.20;78.10;;;;;;5097751;28;20049;-54
2022/10/11 09:38:17;;;;;;;;;;;20.20;65.20;;;;;;5097501;28;19908;-55
2022/10/11 09:40:45;;;;;;;;;;;20.70;67.30;;;;;;5095602;28;19909;-56
2022/10/11 09:43:11;;;;;;;;;;;21.90;75.70;;;;;;5097676;28;19908;-52
2022/10/11 09:45:37;;;;;;;;;;;22.40;61.00;;;;;;5097897;28;19908;-56
2022/10/11 09:48:05;;;;;;;;;;;22.70;69.10;;;;;;5097739;28;20282;-55
2022/10/11 09:50:31;;;;;;;;;;;23.60;58.60;;;;;;5097777;28;19930;-53
2022/10/11 09:53:02;;;;;;;;;;;23.90;57.70;;;;;;5097694;28;19947;-55
2022/10/11 09:55:31;;;;;;;;;;;25.00;62.60;;;;;;5097201;28;19915;-56
2022/10/11 09:57:56;;;;;;;;;;;25.60;59.50;;;;;;5095653;28;19977;-56
2022/10/11 10:00:24;;;;;;;;;;;25.90;63.40;;;;;;5095911;28;19908;-55
2022/10/11 10:02:51;;;;;;;;;;;25.60;53.70;;;;;;5097442;28;19914;-54
2022/10/11 10:05:16;;;;;;;;;;;25.30;48.40;;;;;;5096836;28;19962;-56
2022/10/11 10:08:01;;;;;;;;;;;25.40;52.90;;;;;;5097511;28;19912;-55
2022/10/11 10:10:37;;;;;;;;;;;25.70;48.60;;;;;;5097179;28;19930;-55
2022/10/11 10:13:04;;;;;;;;;;;26.10;47.40;;;;;;5097418;28;19931;-56
2022/10/11 10:15:36;;;;;;;;;;;26.10;48.40;;;;;;5097199;28;19916;-56
2022/10/11 10:18:03;;;;;;;;;;;25.50;50.00;;;;;;5097051;28;19915;-51
2022/10/11 10:20:33;;;;;;;;;;;25.60;47.50;;;;;;5097434;28;19908;-54
2022/10/11 10:23:01;;;;;;;;;;;25.10;54.20;;;;;;5097030;28;19909;-56
2022/10/11 10:25:32;;;;;;;;;;;24.90;51.80;;;;;;5097075;28;20298;-56
2022/10/11 10:27:58;;;;;;;;;;;25.00;56.60;;;;;;5097034;28;19908;-52
2022/10/11 10:30:24;;;;;;;;;;;25.90;54.80;;;;;;5099159;28;19962;-53
2022/10/11 10:33:03;;;;;;;;;;;26.70;48.30;;;;;;5100684;28;19915;-54
2022/10/11 10:35:35;;;;;;;;;;;27.30;48.60;;;;;;5100524;28;19908;-56
2022/10/11 10:38:00;;;;;;;;;;;27.80;47.20;;;;;;5100799;28;19991;-56
2022/10/11 10:40:34;;;;;;;;;;;28.30;54.10;;;;;;5100649;28;19947;-54
2022/10/11 10:43:00;;;;;;;;;;;28.40;46.50;;;;;;5100575;28;20313;-56
2022/10/11 10:45:32;;;;;;;;;;;28.80;49.30;;;;;;5100094;28;19912;-56
2022/10/11 10:48:09;;;;;;;;;;;28.70;47.90;;;;;;5100606;28;19908;-57
2022/10/11 10:50:35;;;;;;;;;;;28.20;44.00;;;;;;5100550;28;19912;-57
2022/10/11 10:53:01;;;;;;;;;;;28.70;48.50;;;;;;5100642;28;19908;-55
2022/10/11 10:55:36;;;;;;;;;;;29.50;45.20;;;;;;5100420;28;19994;-57
2022/10/11 10:58:20;;;;;;;;;;;30.00;43.00;;;;;;5100577;28;19958;-56
2022/10/11 11:00:50;;;;;;;;;;;30.30;42.90;;;;;;5100271;28;19909;-57
2022/10/11 11:03:18;;;;;;;;;;;30.90;50.70;;;;;;5099938;28;19908;-58
2022/10/11 11:05:47;;;;;;;;;;;30.10;43.90;;;;;;5100454;28;20371;-57
2022/10/11 11:08:31;;;;;;;;;;;30.90;48.50;;;;;;5100051;28;19908;-57
2022/10/11 11:11:00;;;;;;;;;;;31.40;40.40;;;;;;5100397;28;19908;-57
2022/10/11 11:13:48;;;;;;;;;;;29.90;39.40;;;;;;5081792;28;20293;-58
2022/10/11 11:16:26;;;;;;;;;;;30.30;46.20;;;;;;5099942;28;19964;-57
2022/10/11 11:18:51;;;;;;;;;;;31.00;43.20;;;;;;5100203;28;19944;-57
2022/10/11 11:21:23;;;;;;;;;;;31.10;41.00;;;;;;5100173;28;19919;-57
2022/10/11 11:23:48;;;;;;;;;;;31.80;43.70;;;;;;5099803;28;19919;-57
2022/10/11 11:26:14;;;;;;;;;;;31.90;44.50;;;;;;5099966;28;19961;-58
2022/10/11 11:28:55;;;;;;;;;;;32.90;42.60;;;;;;5099957;28;19915;-58
2022/10/11 11:31:43;;;;;;;;;;;32.60;39.70;;;;;;5100008;28;19908;-58
2022/10/11 11:34:18;;;;;;;;;;;32.20;36.90;;;;;;5099640;28;19908;-58
2022/10/11 11:36:46;;;;;;;;;;;31.60;45.90;;;;;;5099850;28;19919;-58
2022/10/11 11:39:20;;;;;;;;;;;31.70;39.40;;;;;;5099556;28;19912;-59
2022/10/11 11:41:52;;;;;;;;;;;32.10;42.60;;;;;;5099313;28;19922;-58
2022/10/11 11:44:24;;;;;;;;;;;32.50;38.60;;;;;;5099371;28;19912;-58
2022/10/11 11:46:53;;;;;;;;;;;32.20;38.00;;;;;;5099190;28;19962;-58
2022/10/11 11:49:27;;;;;;;;;;;32.10;40.70;;;;;;5099449;28;19908;-58
2022/10/11 11:51:52;;;;;;;;;;;32.70;41.90;;;;;;5099573;28;20287;-58
2022/10/11 11:54:18;;;;;;;;;;;32.60;35.70;;;;;;5099340;28;19908;-58
2022/10/11 11:56:43;;;;;;;;;;;31.80;41.10;;;;;;5099701;28;20036;-57
2022/10/11 11:59:12;;;;;;;;;;;32.50;43.60;;;;;;5099473;28;19909;-58
2022/10/11 12:01:44;;;;;;;;;;;33.00;38.00;;;;;;5099396;28;19908;-58
2022/10/11 12:04:32;;;;;;;;;;;33.30;42.60;;;;;;5099261;28;20380;-58
2022/10/11 12:07:01;;;;;;;;;;;33.20;37.10;;;;;;5098713;28;19955;-58
2022/10/11 12:09:26;;;;;;;;;;;31.30;36.40;;;;;;5098722;28;19909;-58
2022/10/11 12:11:56;;;;;;;;;;;31.10;41.00;;;;;;5099011;28;19915;-58
2022/10/11 12:14:28;;;;;;;;;;;30.60;38.00;;;;;;5098884;28;19939;-58
2022/10/11 12:17:11;;;;;;;;;;;30.70;36.80;;;;;;5098565;28;19923;-58
2022/10/11 12:19:38;;;;;;;;;;;30.80;38.30;;;;;;5098862;28;20280;-58
2022/10/11 12:22:18;;;;;;;;;;;29.90;36.60;;;;;;5099056;28;19912;-58
2022/10/11 12:24:58;;;;;;;;;;;30.10;40.60;;;;;;5098425;28;20025;-58
2022/10/11 12:27:41;;;;;;;;;;;30.20;38.70;;;;;;5098537;28;19961;-58
2022/10/11 12:30:25;;;;;;;;;;;30.20;37.00;;;;;;5098692;28;19920;-57
2022/10/11 12:32:51;;;;;;;;;;;29.20;39.90;;;;;;5098283;28;19976;-58
2022/10/11 12:35:29;;;;;;;;;;;28.40;41.30;;;;;;5098463;28;20402;-58
2022/10/11 12:38:03;;;;;;;;;;;28.50;40.80;;;;;;5098689;28;19908;-57
2022/10/11 12:40:41;;;;;;;;;;;28.30;40.50;;;;;;5098741;28;19908;-57
2022/10/11 12:43:09;;;;;;;;;;;28.30;39.30;;;;;;5098324;28;19908;-57
2022/10/11 12:45:34;;;;;;;;;;;27.30;39.80;;;;;;5098125;28;19919;-56
2022/10/11 12:48:06;;;;;;;;;;;27.20;40.70;;;;;;5098774;28;19912;-57
2022/10/11 12:50:38;;;;;;;;;;;27.30;41.40;;;;;;5098336;28;19998;-58
2022/10/11 12:53:10;;;;;;;;;;;27.70;39.90;;;;;;5097586;28;20050;-58
2022/10/11 12:55:44;;;;;;;;;;;27.90;40.60;;;;;;5098327;28;20003;-57
2022/10/11 12:58:37;;;;;;;;;;;28.40;41.20;;;;;;5098383;28;19908;-57
2022/10/11 13:01:02;;;;;;;;;;;28.60;41.70;;;;;;5098339;28;19908;-57
2022/10/11 13:03:30;;;;;;;;;;;28.70;39.20;;;;;;5098183;28;19916;-55
2022/10/11 13:05:56;;;;;;;;;;;28.50;39.70;;;;;;5097622;28;19927;-57
2022/10/11 13:08:22;;;;;;;;;;;29.10;41.00;;;;;;5097902;28;19991;-58
2022/10/11 13:10:48;;;;;;;;;;;29.60;41.90;;;;;;5098249;28;19981;-58
2022/10/11 13:13:18;;;;;;;;;;;30.20;39.80;;;;;;5098497;28;19909;-58
2022/10/11 13:15:44;;;;;;;;;;;30.40;39.10;;;;;;5097662;28;19975;-58
2022/10/11 13:18:14;;;;;;;;;;;30.70;39.70;;;;;;5097837;28;19951;-58
2022/10/11 13:20:39;;;;;;;;;;;30.60;38.40;;;;;;5079711;28;19909;-58
2022/10/11 13:23:25;;;;;;;;;;;30.10;38.30;;;;;;5098045;28;20360;-58
2022/10/11 13:25:51;;;;;;;;;;;30.40;41.70;;;;;;5098018;28;19960;-58
2022/10/11 13:28:17;;;;;;;;;;;30.60;39.50;;;;;;5098020;28;19995;-58
2022/10/11 13:30:45;;;;;;;;;;;30.80;37.90;;;;;;5098050;28;19908;-57
2022/10/11 13:33:17;;;;;;;;;;;31.00;39.50;;;;;;5097979;28;19909;-58
2022/10/11 13:35:43;;;;;;;;;;;30.20;39.40;;;;;;5097681;28;19915;-57
2022/10/11 13:38:18;;;;;;;;;;;30.40;38.70;;;;;;5098035;28;19908;-56
2022/10/11 13:40:44;;;;;;;;;;;30.40;40.20;;;;;;5097867;28;19912;-58
2022/10/11 13:43:12;;;;;;;;;;;30.70;39.20;;;;;;5098001;28;19958;-58
2022/10/11 13:45:38;;;;;;;;;;;30.50;38.60;;;;;;5097245;28;19912;-58
2022/10/11 13:48:12;;;;;;;;;;;30.60;39.60;;;;;;5097851;28;19961;-58
2022/10/11 13:50:38;;;;;;;;;;;30.00;38.60;;;;;;5098049;28;19912;-56
2022/10/11 13:53:20;;;;;;;;;;;29.70;38.00;;;;;;5097880;28;20264;-57
2022/10/11 13:56:04;;;;;;;;;;;28.70;39.00;;;;;;5080059;28;19908;-55
2022/10/11 13:58:37;;;;;;;;;;;28.30;40.90;;;;;;5097919;28;19991;-56
2022/10/11 14:01:20;;;;;;;;;;;28.30;40.50;;;;;;5097769;28;20359;-56
2022/10/11 14:03:52;;;;;;;;;;;28.60;40.40;;;;;;5098952;28;20003;-55
2022/10/11 14:06:18;;;;;;;;;;;29.00;40.10;;;;;;5101628;28;19926;-56
2022/10/11 14:08:45;;;;;;;;;;;29.00;39.20;;;;;;5101553;28;20006;-54
2022/10/11 14:11:11;;;;;;;;;;;28.70;39.80;;;;;;5102006;28;19916;-54
2022/10/11 14:13:41;;;;;;;;;;;28.80;40.60;;;;;;5101374;28;19912;-56
2022/10/11 14:16:09;;;;;;;;;;;29.20;38.20;;;;;;5101532;28;19908;-56
2022/10/11 14:18:45;;;;;;;;;;;28.90;38.90;;;;;;5101268;28;20375;-56
2022/10/11 14:21:20;;;;;;;;;;;28.90;39.30;;;;;;5101487;28;19954;-57
2022/10/11 14:23:48;;;;;;;;;;;28.70;38.90;;;;;;5101168;28;19912;-56
2022/10/11 14:26:14;;;;;;;;;;;28.80;40.00;;;;;;5101445;28;20252;-55